createdAt,value
2022-09-12T00:01:22.553Z,66.02
2022-09-12T00:03:55.911Z,66.03
2022-09-12T00:06:27.112Z,66.38
2022-09-12T00:08:58.244Z,66.17
2022-09-12T00:11:27.465Z,66.16
2022-09-12T00:13:58.821Z,65.83
2022-09-12T00:16:30.217Z,65.50
2022-09-12T00:18:59.786Z,65.37
2022-09-12T00:21:28.549Z,65.47
2022-09-12T00:23:56.772Z,65.80
2022-09-12T00:26:25.785Z,66.28
2022-09-12T00:28:54.049Z,65.97
2022-09-12T00:31:25.626Z,66.27
2022-09-12T00:33:54.324Z,66.46
2022-09-12T00:36:25.950Z,66.17
2022-09-12T00:38:54.884Z,66.57
2022-09-12T00:41:26.185Z,66.34
2022-09-12T00:43:56.646Z,66.29
2022-09-12T00:46:35.689Z,66.66
2022-09-12T00:49:13.531Z,66.91
2022-09-12T00:51:47.671Z,66.81
2022-09-12T00:54:24.599Z,66.25
2022-09-12T00:56:56.785Z,66.25
2022-09-12T00:59:30.370Z,66.49
2022-09-12T01:01:58.722Z,66.48
2022-09-12T01:04:28.992Z,66.45
2022-09-12T01:07:00.041Z,66.13
2022-09-12T01:09:28.448Z,66.20
2022-09-12T01:11:56.816Z,66.70
2022-09-12T01:14:25.133Z,67.46
2022-09-12T01:16:53.515Z,67.29
2022-09-12T01:20:16.159Z,66.78
2022-09-12T01:23:17.589Z,66.67
2022-09-12T01:26:04.099Z,66.38
2022-09-12T01:28:57.546Z,66.32
2022-09-12T01:31:34.783Z,66.52
2022-09-12T01:34:16.498Z,66.65
2022-09-12T01:36:57.436Z,66.37
2022-09-12T01:39:36.292Z,66.65
2022-09-12T01:42:16.155Z,66.69
2022-09-12T01:44:53.235Z,66.14
2022-09-12T01:47:28.858Z,65.93
2022-09-12T01:50:02.492Z,65.96
2022-09-12T01:52:39.381Z,66.62
2022-09-12T01:55:13.730Z,66.30
2022-09-12T01:57:49.522Z,65.99
2022-09-12T02:00:17.797Z,65.79
2022-09-12T02:02:52.951Z,65.88
2022-09-12T02:05:28.704Z,65.93
2022-09-12T02:08:05.028Z,66.09
2022-09-12T02:10:39.045Z,66.19
2022-09-12T02:13:13.392Z,66.42
2022-09-12T02:15:45.732Z,66.16
2022-09-12T02:18:18.460Z,65.94
2022-09-12T02:20:49.966Z,66.09
2022-09-12T02:23:23.529Z,66.38
2022-09-12T02:25:57.834Z,66.85
2022-09-12T02:28:31.654Z,67.14
2022-09-12T02:31:10.449Z,67.19
2022-09-12T02:33:49.870Z,66.93
2022-09-12T02:36:34.374Z,66.49
2022-09-12T02:39:02.413Z,66.89
2022-09-12T02:41:30.499Z,66.64
2022-09-12T02:43:58.755Z,67.09
2022-09-12T02:46:32.625Z,66.28
2022-09-12T02:49:02.056Z,66.09
2022-09-12T02:51:30.357Z,65.91
2022-09-12T02:53:59.018Z,65.76
2022-09-12T02:56:30.891Z,65.64
2022-09-12T02:59:03.621Z,65.74
2022-09-12T03:01:57.720Z,65.51
2022-09-12T03:04:52.991Z,65.55
2022-09-12T03:07:34.579Z,65.68
2022-09-12T03:10:11.366Z,65.73
2022-09-12T03:12:53.827Z,65.83
2022-09-12T03:15:41.553Z,65.58
2022-09-12T03:18:26.024Z,65.54
2022-09-12T03:21:07.387Z,65.83
2022-09-12T03:23:42.879Z,65.66
2022-09-12T03:26:17.682Z,65.97
2022-09-12T03:28:47.435Z,65.90
2022-09-12T03:31:17.233Z,65.94
2022-09-12T03:33:45.499Z,65.79
2022-09-12T03:36:20.743Z,66.21
2022-09-12T03:38:48.844Z,66.12
2022-09-12T03:41:17.568Z,66.24
2022-09-12T03:43:46.095Z,66.09
2022-09-12T03:46:15.401Z,66.34
2022-09-12T03:48:43.563Z,65.98
2022-09-12T03:51:12.402Z,66.10
2022-09-12T03:53:41.716Z,66.30
2022-09-12T03:56:12.315Z,66.32
2022-09-12T03:58:40.554Z,66.60
2022-09-12T04:01:12.508Z,66.24
2022-09-12T04:03:41.311Z,65.42
2022-09-12T04:06:13.168Z,65.53
2022-09-12T04:08:44.030Z,65.34
2022-09-12T04:11:14.792Z,65.54
2022-09-12T04:13:45.646Z,65.45
2022-09-12T04:16:16.691Z,65.86
2022-09-12T04:18:45.006Z,65.76
2022-09-12T04:21:17.133Z,65.63
2022-09-12T04:23:46.960Z,65.64
2022-09-12T04:26:17.369Z,65.73
2022-09-12T04:28:47.074Z,65.70
2022-09-12T04:31:19.998Z,65.69
2022-09-12T04:33:48.595Z,66.12
2022-09-12T04:36:18.783Z,65.66
2022-09-12T04:38:49.659Z,66.04
2022-09-12T04:41:20.326Z,65.99
2022-09-12T04:43:52.285Z,66.35
2022-09-12T04:46:21.916Z,66.02
2022-09-12T04:48:54.499Z,65.91
2022-09-12T04:51:28.086Z,65.59
2022-09-12T04:54:01.002Z,65.72
2022-09-12T04:56:30.513Z,66.09
2022-09-12T04:59:01.534Z,65.94
2022-09-12T05:01:30.757Z,66.36
2022-09-12T05:04:00.192Z,66.40
2022-09-12T05:06:32.695Z,66.55
2022-09-12T05:09:04.353Z,66.68
2022-09-12T05:12:02.508Z,66.28
2022-09-12T05:14:25.729Z,66.25
2022-09-12T05:16:53.772Z,65.78
2022-09-12T05:19:23.103Z,65.69
2022-09-12T05:21:51.063Z,65.77
2022-09-12T05:24:20.433Z,65.66
2022-09-12T05:26:48.587Z,65.79
2022-09-12T05:29:16.755Z,66.18
2022-09-12T05:31:44.813Z,66.49
2022-09-12T05:34:12.954Z,66.40
2022-09-12T05:36:41.153Z,66.96
2022-09-12T05:39:09.432Z,66.95
2022-09-12T05:41:38.951Z,67.19
2022-09-12T05:44:12.175Z,67.68
2022-09-12T05:46:43.972Z,67.99
2022-09-12T05:49:14.508Z,68.00
2022-09-12T05:51:44.988Z,67.75
2022-09-12T05:54:17.043Z,68.38
2022-09-12T05:56:47.210Z,67.95
2022-09-12T05:59:18.611Z,68.03
2022-09-12T06:01:47.526Z,68.04
2022-09-12T06:04:16.264Z,68.19
2022-09-12T06:06:46.311Z,68.39
2022-09-12T06:09:16.172Z,68.26
2022-09-12T06:11:47.066Z,68.64
2022-09-12T06:14:17.483Z,68.25
2022-09-12T06:16:46.198Z,68.27
2022-09-12T06:19:17.445Z,68.27
2022-09-12T06:21:46.011Z,68.43
2022-09-12T06:24:14.115Z,68.24
2022-09-12T06:26:42.180Z,68.73
2022-09-12T06:29:13.229Z,68.78
2022-09-12T06:31:44.905Z,68.95
2022-09-12T06:34:15.853Z,68.83
2022-09-12T06:36:46.126Z,69.34
2022-09-12T06:39:16.456Z,69.09
2022-09-12T06:41:45.247Z,68.70
2022-09-12T06:44:18.192Z,68.91
2022-09-12T06:46:47.053Z,69.03
2022-09-12T06:49:15.755Z,69.05
2022-09-12T06:51:44.670Z,69.20
2022-09-12T06:54:15.345Z,69.42
2022-09-12T06:56:43.686Z,69.75
2022-09-12T06:59:11.681Z,69.67
2022-09-12T07:01:42.231Z,69.47
2022-09-12T07:04:11.419Z,69.75
2022-09-12T07:06:41.789Z,69.75
2022-09-12T07:09:12.701Z,69.77
2022-09-12T07:11:43.206Z,69.65
2022-09-12T07:14:14.655Z,69.97
2022-09-12T07:16:44.961Z,69.78
2022-09-12T07:19:13.346Z,69.41
2022-09-12T07:21:41.872Z,69.54
2022-09-12T07:24:11.273Z,69.46
2022-09-12T07:26:42.077Z,69.27
2022-09-12T07:32:07.525Z,69.35
2022-09-12T07:34:36.137Z,69.39
2022-09-12T07:37:04.621Z,68.98
2022-09-12T07:39:32.573Z,68.72
2022-09-12T07:42:01.340Z,68.43
2022-09-12T07:44:29.551Z,68.08
2022-09-12T07:46:57.518Z,67.85
2022-09-12T07:49:27.043Z,67.00
2022-09-12T07:51:55.324Z,66.82
2022-09-12T07:54:23.559Z,65.50
2022-09-12T07:56:51.700Z,64.88
2022-09-12T07:59:41.572Z,63.67
2022-09-12T08:02:17.115Z,62.92
2022-09-12T08:04:48.451Z,62.46
2022-09-12T08:07:18.316Z,62.66
2022-09-12T08:09:46.401Z,62.66
2022-09-12T08:12:14.729Z,61.69
2022-09-12T08:14:42.695Z,62.46
2022-09-12T08:17:10.667Z,61.66
2022-09-12T08:19:39.231Z,61.22
2022-09-12T08:22:13.565Z,60.65
2022-09-12T08:24:41.817Z,60.86
2022-09-12T08:27:09.903Z,60.15
2022-09-12T08:29:37.857Z,59.65
2022-09-12T08:32:06.167Z,59.27
2022-09-12T08:34:34.146Z,59.35
2022-09-12T08:37:02.267Z,59.35
2022-09-12T08:39:32.662Z,57.07
2022-09-12T08:42:04.029Z,57.84
2022-09-12T08:45:09.718Z,55.57
2022-09-12T08:47:40.836Z,55.58
2022-09-12T08:50:18.732Z,55.38
2022-09-12T08:53:02.510Z,53.83
2022-09-12T08:55:37.401Z,53.94
2022-09-12T08:58:16.079Z,54.06
2022-09-12T09:00:57.326Z,54.94
2022-09-12T09:04:17.294Z,53.61
2022-09-12T09:07:18.850Z,54.02
2022-09-12T09:10:04.047Z,52.92
2022-09-12T09:12:43.639Z,53.02
2022-09-12T09:15:28.380Z,52.55
2022-09-12T09:18:00.943Z,52.21
2022-09-12T09:20:36.574Z,51.62
2022-09-12T09:23:11.835Z,51.73
2022-09-12T09:25:51.073Z,50.81
2022-09-12T09:28:26.635Z,49.75
2022-09-12T09:30:55.625Z,49.58
2022-09-12T09:33:27.461Z,49.91
2022-09-12T09:36:08.266Z,49.28
2022-09-12T09:38:48.801Z,48.15
2022-09-12T09:41:36.003Z,48.21
2022-09-12T09:46:34.415Z,48.74
2022-09-12T09:49:03.838Z,48.13
2022-09-12T09:51:37.361Z,48.41
2022-09-12T09:54:18.459Z,46.56
2022-09-12T09:56:46.837Z,45.56
2022-09-12T09:59:19.576Z,45.56
2022-09-12T10:01:52.444Z,45.91
2022-09-12T10:04:24.164Z,45.44
2022-09-12T10:06:58.801Z,44.87
2022-09-12T10:09:29.317Z,44.48
2022-09-12T10:11:58.647Z,43.43
2022-09-12T10:14:38.780Z,43.36
2022-09-12T10:17:33.887Z,45.70
2022-09-12T10:20:20.867Z,44.39
2022-09-12T10:22:50.437Z,42.97
2022-09-12T10:25:21.118Z,42.03
2022-09-12T10:27:56.684Z,43.25
2022-09-12T10:30:28.421Z,43.33
2022-09-12T10:33:07.381Z,43.27
2022-09-12T10:35:49.423Z,42.66
2022-09-12T10:38:24.769Z,41.91
2022-09-12T10:41:02.179Z,41.20
2022-09-12T10:43:35.834Z,40.41
2022-09-12T10:46:28.645Z,40.55
2022-09-12T10:49:25.122Z,41.93
2022-09-12T10:51:55.573Z,41.09
2022-09-12T10:54:28.003Z,41.25
2022-09-12T10:57:29.683Z,40.16
2022-09-12T11:00:13.668Z,40.63
2022-09-12T11:03:06.202Z,40.88
2022-09-12T11:05:47.197Z,41.30
2022-09-12T11:08:53.370Z,40.42
2022-09-12T11:11:41.846Z,39.71
2022-09-12T11:14:27.199Z,39.65
2022-09-12T11:17:05.660Z,40.09
2022-09-12T11:19:51.779Z,40.18
2022-09-12T11:22:37.419Z,39.88
2022-09-12T11:25:24.707Z,39.64
2022-09-12T11:28:25.366Z,39.87
2022-09-12T11:31:12.479Z,38.65
2022-09-12T11:33:45.095Z,39.01
2022-09-12T11:36:31.558Z,39.26
2022-09-12T11:39:12.881Z,39.35
2022-09-12T11:41:45.884Z,37.32
2022-09-12T11:44:19.958Z,37.69
2022-09-12T11:46:51.762Z,39.64
2022-09-12T11:49:33.597Z,38.75
2022-09-12T11:52:12.058Z,39.75
2022-09-12T11:54:52.784Z,38.63
2022-09-12T11:57:32.001Z,38.75
2022-09-12T12:00:04.747Z,38.76
2022-09-12T12:02:42.756Z,38.05
2022-09-12T12:05:21.838Z,37.47
2022-09-12T12:07:57.070Z,37.00
2022-09-12T12:10:33.442Z,36.89
2022-09-12T12:13:04.103Z,36.63
2022-09-12T12:15:32.688Z,38.31
2022-09-12T12:18:16.867Z,37.69
2022-09-12T12:20:45.071Z,38.00
2022-09-12T12:23:28.482Z,37.03
2022-09-12T12:25:58.657Z,36.82
2022-09-12T12:28:59.254Z,36.47
2022-09-12T12:31:27.387Z,37.12
2022-09-12T12:34:23.858Z,36.76
2022-09-12T12:36:51.965Z,37.47
2022-09-12T12:40:05.985Z,36.99
2022-09-12T12:43:05.402Z,35.67
2022-09-12T12:46:12.988Z,36.58
2022-09-12T12:49:11.483Z,37.38
2022-09-12T12:52:02.452Z,37.73
2022-09-12T12:54:54.630Z,37.00
2022-09-12T12:57:50.683Z,37.22
2022-09-12T13:00:35.762Z,36.69
2022-09-12T13:03:19.257Z,37.20
2022-09-12T13:05:50.829Z,37.16
2022-09-12T13:08:31.511Z,37.16
2022-09-12T13:11:03.569Z,37.24
2022-09-12T13:13:39.221Z,36.74
2022-09-12T13:16:07.771Z,36.80
2022-09-12T13:18:45.594Z,36.72
2022-09-12T13:21:17.261Z,37.53
2022-09-12T13:23:59.681Z,37.64
2022-09-12T13:26:27.841Z,37.79
2022-09-12T13:31:53.906Z,37.60
2022-09-12T13:34:25.863Z,37.55
2022-09-12T13:37:31.455Z,37.65
2022-09-12T13:40:17.434Z,36.05
2022-09-12T13:42:49.068Z,36.62
2022-09-12T13:45:23.231Z,37.56
2022-09-12T13:47:58.841Z,37.09
2022-09-12T13:50:31.700Z,36.63
2022-09-12T13:53:05.333Z,36.76
2022-09-12T13:55:37.996Z,37.41
2022-09-12T13:58:15.387Z,37.14
2022-09-12T14:00:43.432Z,36.54
2022-09-12T14:03:46.301Z,35.53
2022-09-12T14:06:18.189Z,36.88
2022-09-12T14:08:48.092Z,36.71
2022-09-12T14:11:27.230Z,36.98
2022-09-12T14:13:56.261Z,37.77
2022-09-12T14:16:28.295Z,37.29
2022-09-12T14:18:59.637Z,36.00
2022-09-12T14:21:35.394Z,35.64
2022-09-12T14:24:10.281Z,35.00
2022-09-12T14:26:41.163Z,35.38
2022-09-12T14:29:13.502Z,35.62
2022-09-12T14:31:43.652Z,34.75
2022-09-12T14:34:20.146Z,35.74
2022-09-12T14:36:51.379Z,35.40
2022-09-12T14:39:29.487Z,34.65
2022-09-12T14:42:08.433Z,34.67
2022-09-12T14:44:37.717Z,35.05
2022-09-12T14:47:16.347Z,34.89
2022-09-12T14:49:45.858Z,34.68
2022-09-12T14:52:28.674Z,34.64
2022-09-12T14:54:59.109Z,34.50
2022-09-12T14:57:36.630Z,33.55
2022-09-12T15:00:20.855Z,33.56
2022-09-12T15:02:49.892Z,33.95
2022-09-12T15:05:24.494Z,33.77
2022-09-12T15:07:57.666Z,34.21
2022-09-12T15:10:31.101Z,33.76
2022-09-12T15:13:19.375Z,34.08
2022-09-12T15:15:50.929Z,33.65
2022-09-12T15:18:20.027Z,33.66
2022-09-12T15:20:52.083Z,32.95
2022-09-12T15:23:30.978Z,33.60
2022-09-12T15:25:59.047Z,33.71
2022-09-12T15:28:28.455Z,33.21
2022-09-12T15:30:57.834Z,33.50
2022-09-12T15:33:26.839Z,32.92
2022-09-12T15:35:56.174Z,33.27
2022-09-12T15:38:26.572Z,32.40
2022-09-12T15:40:56.658Z,32.58
2022-09-12T15:43:26.172Z,32.62
2022-09-12T15:45:54.350Z,32.43
2022-09-12T15:48:22.647Z,32.39
2022-09-12T15:50:50.757Z,32.28
2022-09-12T15:53:20.091Z,32.02
2022-09-12T15:55:48.044Z,32.35
2022-09-12T15:58:15.974Z,31.98
2022-09-12T16:00:44.018Z,31.84
2022-09-12T16:03:23.103Z,31.88
2022-09-12T16:05:51.827Z,32.42
2022-09-12T16:08:21.309Z,32.79
2022-09-12T16:10:54.315Z,32.67
2022-09-12T16:13:22.491Z,33.27
2022-09-12T16:15:50.551Z,34.18
2022-09-12T16:18:18.958Z,33.75
2022-09-12T16:20:46.903Z,34.21
2022-09-12T16:23:15.160Z,34.41
2022-09-12T16:25:44.485Z,34.23
2022-09-12T16:28:13.184Z,34.29
2022-09-12T16:30:41.651Z,33.64
2022-09-12T16:33:09.852Z,34.68
2022-09-12T16:35:37.821Z,35.14
2022-09-12T16:38:05.828Z,34.95
2022-09-12T16:40:33.762Z,34.97
2022-09-12T16:43:03.081Z,35.28
2022-09-12T16:45:31.013Z,36.40
2022-09-12T16:47:59.064Z,36.44
2022-09-12T16:50:29.151Z,37.07
2022-09-12T16:52:57.191Z,36.58
2022-09-12T16:55:25.157Z,36.26
2022-09-12T16:57:53.139Z,36.83
2022-09-12T17:00:22.819Z,37.11
2022-09-12T17:02:50.894Z,37.21
2022-09-12T17:05:18.863Z,37.14
2022-09-12T17:07:47.479Z,37.82
2022-09-12T17:10:15.695Z,38.56
2022-09-12T17:12:43.649Z,39.43
2022-09-12T17:15:12.075Z,40.35
2022-09-12T17:17:41.377Z,41.29
2022-09-12T17:20:09.975Z,41.52
2022-09-12T17:22:38.047Z,42.50
2022-09-12T17:25:07.151Z,43.03
2022-09-12T17:27:36.158Z,43.65
2022-09-12T17:30:07.927Z,43.56
2022-09-12T17:32:35.913Z,43.70
2022-09-12T17:35:08.704Z,44.44
2022-09-12T17:37:36.803Z,44.46
2022-09-12T17:40:05.511Z,43.38
2022-09-12T17:42:34.452Z,44.55
2022-09-12T17:45:11.611Z,45.16
2022-09-12T17:47:42.992Z,45.83
2022-09-12T17:50:30.706Z,46.11
2022-09-12T17:52:59.532Z,47.41
2022-09-12T17:55:32.305Z,48.09
2022-09-12T17:58:02.332Z,48.19
2022-09-12T18:00:45.497Z,48.49
2022-09-12T18:03:15.287Z,48.93
2022-09-12T18:05:48.986Z,49.24
2022-09-12T18:08:17.009Z,49.81
2022-09-12T18:10:45.051Z,49.54
2022-09-12T18:13:13.169Z,49.96
2022-09-12T18:15:41.187Z,50.45
2022-09-12T18:18:09.529Z,50.51
2022-09-12T18:20:38.540Z,50.69
2022-09-12T18:23:08.055Z,50.35
2022-09-12T18:25:36.011Z,50.52
2022-09-12T18:28:09.183Z,50.65
2022-09-12T18:30:37.501Z,50.75
2022-09-12T18:33:05.534Z,51.07
2022-09-12T18:35:33.546Z,51.16
2022-09-12T18:38:01.578Z,51.13
2022-09-12T18:40:30.879Z,50.78
2022-09-12T18:42:59.411Z,50.44
2022-09-12T18:45:27.535Z,50.57
2022-09-12T18:47:56.230Z,51.13
2022-09-12T18:50:24.628Z,51.24
2022-09-12T18:52:57.769Z,51.50
2022-09-12T18:55:27.648Z,51.40
2022-09-12T18:57:57.800Z,51.43
2022-09-12T19:00:25.793Z,51.81
2022-09-12T19:02:53.811Z,51.58
2022-09-12T19:05:21.755Z,52.13
2022-09-12T19:07:49.695Z,51.89
2022-09-12T19:10:17.807Z,52.19
2022-09-12T19:12:45.757Z,52.52
2022-09-12T19:15:15.125Z,52.40
2022-09-12T19:17:43.608Z,52.42
2022-09-12T19:20:11.689Z,52.72
2022-09-12T19:22:39.671Z,52.92
2022-09-12T19:25:13.003Z,52.96
2022-09-12T19:27:41.000Z,53.09
2022-09-12T19:30:11.852Z,53.18
2022-09-12T19:32:41.126Z,53.46
2022-09-12T19:35:12.775Z,53.40
2022-09-12T19:37:40.803Z,53.71
2022-09-12T19:40:12.482Z,53.63
2022-09-12T19:42:40.497Z,53.75
2022-09-12T19:45:10.344Z,53.56
2022-09-12T19:47:38.314Z,53.68
2022-09-12T19:50:09.237Z,53.95
2022-09-12T19:52:37.633Z,53.90
2022-09-12T19:55:06.424Z,53.77
2022-09-12T20:00:53.242Z,54.48
2022-09-12T20:03:21.362Z,54.71
2022-09-12T20:05:50.931Z,55.02
2022-09-12T20:09:36.036Z,55.28
2022-09-12T20:12:28.937Z,55.34
2022-09-12T20:15:21.316Z,55.67
2022-09-12T20:17:55.675Z,55.83
2022-09-12T20:20:26.561Z,55.94
2022-09-12T20:22:56.128Z,56.14
2022-09-12T20:25:24.097Z,56.56
2022-09-12T20:27:52.840Z,56.26
2022-09-12T20:33:15.126Z,56.57
2022-09-12T20:35:43.158Z,56.59
2022-09-12T20:38:12.471Z,56.65
2022-09-12T20:40:40.438Z,56.73
2022-09-12T20:43:08.914Z,57.08
2022-09-12T20:45:41.694Z,56.59
2022-09-12T20:48:09.775Z,56.41
2022-09-12T20:50:37.721Z,56.79
2022-09-12T20:53:05.700Z,56.64
2022-09-12T20:55:35.072Z,56.34
2022-09-12T20:58:03.423Z,56.70
2022-09-12T21:00:31.989Z,56.63
2022-09-12T21:03:00.471Z,56.73
2022-09-12T21:05:28.595Z,56.65
2022-09-12T21:07:57.547Z,56.47
2022-09-12T21:10:25.750Z,56.68
2022-09-12T21:12:55.292Z,56.96
2022-09-12T21:15:23.612Z,57.22
2022-09-12T21:17:52.503Z,57.17
2022-09-12T21:23:13.316Z,57.20
2022-09-12T21:25:41.343Z,57.31
2022-09-12T21:28:11.262Z,57.10
2022-09-12T21:30:39.581Z,57.15
2022-09-12T21:33:12.471Z,57.42
2022-09-12T21:35:40.487Z,57.20
2022-09-12T21:38:09.310Z,57.52
2022-09-12T21:40:37.377Z,57.85
2022-09-12T21:43:09.217Z,57.48
2022-09-12T21:45:41.747Z,57.65
2022-09-12T21:48:09.753Z,57.92
2022-09-12T21:50:37.761Z,57.66
2022-09-12T21:53:05.755Z,57.95
2022-09-12T21:55:33.673Z,57.64
2022-09-12T21:58:02.927Z,57.93
2022-09-12T22:00:30.886Z,57.85
2022-09-12T22:03:00.188Z,58.20
2022-09-12T22:05:31.542Z,58.20
2022-09-12T22:08:00.754Z,58.51
2022-09-12T22:10:31.350Z,58.54
2022-09-12T22:12:59.303Z,58.41
2022-09-12T22:15:42.817Z,58.25
2022-09-12T22:18:12.391Z,58.09
2022-09-12T22:20:40.606Z,58.01
2022-09-12T22:23:26.296Z,58.09
2022-09-12T22:25:56.649Z,58.22
2022-09-12T22:28:25.314Z,58.33
2022-09-12T22:30:54.735Z,58.43
2022-09-12T22:33:24.110Z,58.04
2022-09-12T22:35:52.075Z,57.75
2022-09-12T22:38:20.179Z,57.96
2022-09-12T22:40:48.135Z,58.00
2022-09-12T22:43:16.492Z,58.25
2022-09-12T22:45:44.490Z,58.10
2022-09-12T22:48:12.523Z,57.72
2022-09-12T22:50:42.475Z,57.76
2022-09-12T22:53:10.494Z,57.91
2022-09-12T22:55:39.714Z,58.05
2022-09-12T22:58:07.701Z,57.47
2022-09-12T23:00:35.761Z,57.60
2022-09-12T23:03:04.580Z,57.27
2022-09-12T23:05:32.559Z,57.64
2022-09-12T23:08:02.109Z,57.71
2022-09-12T23:10:32.171Z,57.71
2022-09-12T23:13:00.999Z,57.96
2022-09-12T23:15:32.047Z,57.58
2022-09-12T23:18:00.626Z,57.63
2022-09-12T23:20:30.835Z,57.43
2022-09-12T23:22:58.926Z,58.00
2022-09-12T23:25:28.439Z,57.62
2022-09-12T23:27:56.394Z,57.97
2022-09-12T23:30:24.493Z,57.96
2022-09-12T23:32:52.474Z,58.05
2022-09-12T23:35:20.462Z,58.04
2022-09-12T23:37:48.775Z,58.16
2022-09-12T23:40:17.024Z,57.92
2022-09-12T23:42:46.371Z,57.74
2022-09-12T23:45:14.436Z,58.19
2022-09-12T23:47:42.431Z,58.33
2022-09-12T23:50:10.838Z,58.00
2022-09-12T23:52:38.771Z,58.27
2022-09-12T23:55:07.910Z,58.61
2022-09-12T23:57:36.058Z,58.81
